Time;durP1;ratioP1;P1;durP2;ratioP2;P2;SDS_P1;SDS_P2;PMS_P1;PMS_P2;Temp;Humidity;BMP_temperature;BMP_pressure;BME280_temperature;BME280_humidity;BME280_pressure;Samples;Min_cycle;Max_cycle;Signal;HPM_P1;HPM_P2
2023/10/09 00:02:53;;;;;;;;;;;14.60;90.10;;;;;;5069258;28;20007;-77
2023/10/09 00:05:38;;;;;;;;;;;14.50;90.00;;;;;;5064519;28;20015;-78
2023/10/09 00:08:04;;;;;;;;;;;14.50;90.00;;;;;;5068224;28;19913;-77
2023/10/09 00:10:45;;;;;;;;;;;14.50;90.00;;;;;;5068786;28;20369;-77
2023/10/09 00:13:11;;;;;;;;;;;14.60;90.10;;;;;;5070665;28;19950;-78
2023/10/09 00:15:36;;;;;;;;;;;14.60;90.10;;;;;;5071665;28;20382;-77
2023/10/09 00:18:12;;;;;;;;;;;14.60;90.10;;;;;;5064779;28;19939;-78
2023/10/09 00:20:42;;;;;;;;;;;14.60;90.10;;;;;;5070542;28;19909;-78
2023/10/09 00:23:12;;;;;;;;;;;14.60;90.20;;;;;;5069374;28;19924;-78
2023/10/09 00:25:44;;;;;;;;;;;14.70;90.20;;;;;;5069987;28;19920;-78
2023/10/09 00:28:10;;;;;;;;;;;14.70;90.10;;;;;;5072746;28;19909;-77
2023/10/09 00:30:41;;;;;;;;;;;14.70;90.10;;;;;;5069638;28;20015;-77
2023/10/09 00:33:07;;;;;;;;;;;14.70;90.00;;;;;;5069713;28;20008;-77
2023/10/09 00:35:36;;;;;;;;;;;14.70;90.10;;;;;;5067755;28;20271;-77
2023/10/09 00:38:24;;;;;;;;;;;14.70;90.10;;;;;;5071751;28;19909;-78
2023/10/09 00:41:09;;;;;;;;;;;14.70;90.20;;;;;;5069515;28;19912;-78
2023/10/09 00:43:38;;;;;;;;;;;14.80;90.20;;;;;;5067829;28;19908;-77
2023/10/09 00:48:47;;;;;;;;;;;14.90;90.30;;;;;;5071650;28;20374;-78
2023/10/09 00:51:18;;;;;;;;;;;15.00;90.30;;;;;;5072583;28;19913;-78
2023/10/09 00:53:45;;;;;;;;;;;15.10;90.00;;;;;;5068873;28;19924;-77
2023/10/09 00:56:28;;;;;;;;;;;15.20;90.00;;;;;;5069888;28;19964;-77
2023/10/09 00:58:56;;;;;;;;;;;15.20;89.80;;;;;;5087238;28;19913;-78
2023/10/09 01:01:27;;;;;;;;;;;15.20;89.90;;;;;;5069163;28;19916;-77
2023/10/09 01:03:53;;;;;;;;;;;15.20;89.80;;;;;;5074046;28;19913;-78
2023/10/09 01:06:21;;;;;;;;;;;15.30;89.60;;;;;;5072454;28;19943;-77
2023/10/09 01:09:09;;;;;;;;;;;15.30;89.60;;;;;;5071991;28;19915;-77
2023/10/09 01:11:32;;;;;;;;;;;15.30;89.50;;;;;;5066584;28;19923;-79
2023/10/09 01:16:32;;;;;;;;;;;15.50;89.30;;;;;;5072078;28;20064;-77
2023/10/09 01:18:57;;;;;;;;;;;15.50;89.30;;;;;;5071390;28;20433;-78
2023/10/09 01:21:26;;;;;;;;;;;15.50;89.30;;;;;;5070621;28;19962;-78
2023/10/09 01:24:08;;;;;;;;;;;15.50;89.20;;;;;;5068145;28;19919;-78
2023/10/09 01:26:47;;;;;;;;;;;15.50;89.10;;;;;;5058983;28;19913;-78
2023/10/09 01:29:18;;;;;;;;;;;15.60;88.70;;;;;;5063260;28;19935;-77
2023/10/09 01:32:00;;;;;;;;;;;15.60;88.80;;;;;;5072577;28;19913;-77
2023/10/09 01:34:38;;;;;;;;;;;15.60;88.70;;;;;;5069397;28;20011;-76
2023/10/09 01:37:28;;;;;;;;;;;15.70;88.60;;;;;;5075038;28;19909;-77
2023/10/09 01:39:58;;;;;;;;;;;15.70;88.30;;;;;;5073585;28;19919;-78
2023/10/09 01:42:44;;;;;;;;;;;15.80;87.80;;;;;;5072765;28;20377;-78
2023/10/09 01:45:10;;;;;;;;;;;15.80;87.90;;;;;;5074247;28;20297;-78
2023/10/09 01:47:37;;;;;;;;;;;15.80;87.90;;;;;;5071649;28;19913;-78
2023/10/09 01:50:12;;;;;;;;;;;15.80;87.90;;;;;;5068369;28;19938;-78
2023/10/09 01:52:37;;;;;;;;;;;15.80;87.90;;;;;;5075923;28;20007;-78
2023/10/09 01:55:27;;;;;;;;;;;15.70;87.90;;;;;;5077153;28;20001;-78
2023/10/09 01:57:49;;;;;;;;;;;15.80;87.80;;;;;;5078645;28;20373;-78
2023/10/09 02:00:22;;;;;;;;;;;15.80;87.50;;;;;;5074487;28;19916;-76
2023/10/09 02:02:50;;;;;;;;;;;15.70;87.60;;;;;;5074501;28;20283;-78
2023/10/09 02:07:44;;;;;;;;;;;15.80;87.30;;;;;;5075291;28;19999;-77
2023/10/09 02:10:31;;;;;;;;;;;15.70;87.40;;;;;;5074552;28;19966;-77
2023/10/09 02:12:58;;;;;;;;;;;15.90;87.10;;;;;;5070916;28;19924;-77
2023/10/09 02:15:45;;;;;;;;;;;15.80;87.00;;;;;;5074214;28;19916;-78
2023/10/09 02:21:01;;;;;;;;;;;15.80;86.90;;;;;;5069060;28;19915;-78
2023/10/09 02:23:38;;;;;;;;;;;15.70;87.10;;;;;;5074605;28;19908;-78
2023/10/09 02:26:06;;;;;;;;;;;15.70;87.40;;;;;;5076075;28;19916;-78
2023/10/09 02:28:33;;;;;;;;;;;15.70;87.50;;;;;;5073290;28;19919;-77
2023/10/09 02:31:09;;;;;;;;;;;15.60;87.40;;;;;;5074009;28;19912;-78
2023/10/09 02:33:36;;;;;;;;;;;15.70;87.40;;;;;;5072853;28;19952;-78
2023/10/09 02:36:05;;;;;;;;;;;15.70;87.10;;;;;;5075989;28;19943;-77
2023/10/09 02:38:34;;;;;;;;;;;15.80;87.10;;;;;;5070800;28;19919;-78
2023/10/09 02:43:44;;;;;;;;;;;15.80;87.20;;;;;;5073744;28;19920;-78
2023/10/09 02:46:20;;;;;;;;;;;15.80;86.90;;;;;;5070181;28;20054;-77
2023/10/09 02:48:52;;;;;;;;;;;15.80;86.80;;;;;;5073538;28;19912;-78
2023/10/09 02:51:32;;;;;;;;;;;15.90;86.60;;;;;;5074547;28;19915;-78
2023/10/09 02:53:59;;;;;;;;;;;16.00;86.30;;;;;;5068878;28;19917;-77
2023/10/09 02:56:37;;;;;;;;;;;16.10;86.00;;;;;;5075921;28;19908;-78
2023/10/09 02:59:05;;;;;;;;;;;16.00;86.00;;;;;;5073937;28;20108;-78
2023/10/09 03:01:31;;;;;;;;;;;16.00;86.20;;;;;;5071067;28;19913;-79
2023/10/09 03:03:59;;;;;;;;;;;16.00;86.20;;;;;;5073398;28;19912;-78
2023/10/09 03:06:30;;;;;;;;;;;16.00;86.00;;;;;;5071022;28;19992;-78
2023/10/09 03:08:57;;;;;;;;;;;16.00;86.00;;;;;;5073050;28;19919;-78
2023/10/09 03:11:23;;;;;;;;;;;16.00;86.10;;;;;;5067732;28;19924;-78
2023/10/09 03:13:48;;;;;;;;;;;16.00;85.90;;;;;;5071372;28;19917;-78
2023/10/09 03:16:18;;;;;;;;;;;16.10;85.60;;;;;;5071442;28;19919;-78
2023/10/09 03:18:52;;;;;;;;;;;16.10;85.50;;;;;;5072333;28;19924;-77
2023/10/09 03:21:18;;;;;;;;;;;16.10;85.30;;;;;;5071558;28;19944;-78
2023/10/09 03:23:49;;;;;;;;;;;16.10;85.50;;;;;;5074538;28;20307;-78
2023/10/09 03:26:15;;;;;;;;;;;16.20;85.40;;;;;;5073909;28;19908;-78
2023/10/09 03:28:43;;;;;;;;;;;16.10;85.40;;;;;;5072588;28;20293;-78
2023/10/09 03:31:10;;;;;;;;;;;16.10;85.10;;;;;;5071420;28;19912;-78
2023/10/09 03:33:35;;;;;;;;;;;16.10;85.00;;;;;;5072545;28;19963;-77
2023/10/09 03:36:01;;;;;;;;;;;16.20;84.60;;;;;;5070384;28;19912;-78
2023/10/09 03:38:34;;;;;;;;;;;16.20;84.70;;;;;;5073650;28;19991;-78
2023/10/09 03:41:01;;;;;;;;;;;16.30;84.60;;;;;;5073379;28;19909;-78
2023/10/09 03:43:31;;;;;;;;;;;16.50;84.00;;;;;;5067398;28;19938;-78
2023/10/09 03:45:59;;;;;;;;;;;16.50;84.30;;;;;;5068928;28;19913;-76
2023/10/09 03:48:32;;;;;;;;;;;16.40;84.20;;;;;;5073549;28;19908;-78
2023/10/09 03:51:11;;;;;;;;;;;16.40;84.20;;;;;;5073614;28;20439;-78
2023/10/09 03:53:37;;;;;;;;;;;16.40;84.30;;;;;;5071134;28;20376;-78
2023/10/09 03:56:11;;;;;;;;;;;16.40;84.30;;;;;;5069462;28;19952;-78
2023/10/09 03:58:39;;;;;;;;;;;16.30;84.60;;;;;;5071718;28;19917;-78
2023/10/09 04:03:55;;;;;;;;;;;16.20;84.90;;;;;;5074042;28;19912;-77
2023/10/09 04:06:28;;;;;;;;;;;16.10;85.00;;;;;;5069864;28;20281;-78
2023/10/09 04:08:54;;;;;;;;;;;16.10;85.10;;;;;;5075094;28;19924;-78
2023/10/09 04:11:22;;;;;;;;;;;16.20;85.00;;;;;;5070137;28;19916;-77
2023/10/09 04:13:59;;;;;;;;;;;16.20;84.90;;;;;;5065068;28;20020;-78
2023/10/09 04:16:34;;;;;;;;;;;16.20;84.70;;;;;;5070677;28;19917;-78
2023/10/09 04:18:59;;;;;;;;;;;16.30;84.50;;;;;;5070273;28;19913;-78
2023/10/09 04:21:34;;;;;;;;;;;16.20;84.70;;;;;;5072412;28;19912;-78
2023/10/09 04:26:45;;;;;;;;;;;16.30;84.40;;;;;;5073646;28;19966;-78
2023/10/09 04:29:18;;;;;;;;;;;16.30;84.30;;;;;;5072135;28;19959;-79
2023/10/09 04:31:51;;;;;;;;;;;16.30;84.40;;;;;;5073843;28;19917;-78
2023/10/09 04:34:34;;;;;;;;;;;16.30;84.50;;;;;;5070080;28;20395;-78
2023/10/09 04:37:00;;;;;;;;;;;16.20;84.90;;;;;;5074257;28;19915;-78
2023/10/09 04:44:39;;;;;;;;;;;16.10;85.00;;;;;;5070927;28;19920;-78
2023/10/09 04:57:45;;;;;;;;;;;16.20;84.50;;;;;;5068759;28;20057;-78
2023/10/09 05:02:56;;;;;;;;;;;16.20;84.40;;;;;;5069832;28;19978;-78
2023/10/09 05:05:48;;;;;;;;;;;16.20;84.00;;;;;;5073144;28;19920;-78
2023/10/09 05:08:21;;;;;;;;;;;16.20;84.10;;;;;;5074903;28;19923;-78
2023/10/09 05:13:42;;;;;;;;;;;16.20;84.20;;;;;;5077178;28;19917;-78
2023/10/09 05:16:26;;;;;;;;;;;16.30;83.90;;;;;;5069689;28;19912;-77
2023/10/09 05:18:56;;;;;;;;;;;16.30;83.80;;;;;;5071641;28;19970;-77
2023/10/09 05:34:33;;;;;;;;;;;16.30;83.50;;;;;;5074443;28;19963;-82
2023/10/09 05:37:16;;;;;;;;;;;16.40;83.20;;;;;;5076669;28;20006;-87
2023/10/09 05:39:43;;;;;;;;;;;16.40;83.10;;;;;;5077138;28;19913;-84
2023/10/09 05:42:17;;;;;;;;;;;16.40;83.20;;;;;;5076887;28;20016;-83
2023/10/09 05:50:34;;;;;;;;;;;16.40;82.90;;;;;;5080269;28;20322;-85
2023/10/09 06:08:47;;;;;;;;;;;16.40;83.60;;;;;;5067372;28;20297;-85
2023/10/09 06:14:02;;;;;;;;;;;16.50;83.40;;;;;;5067298;28;19965;-85
2023/10/09 06:16:46;;;;;;;;;;;16.50;83.40;;;;;;5066632;28;20372;-86
2023/10/09 06:19:26;;;;;;;;;;;16.40;83.60;;;;;;5069019;28;20370;-86
2023/10/09 06:24:42;;;;;;;;;;;16.40;83.70;;;;;;5072021;28;20023;-86
2023/10/09 06:27:24;;;;;;;;;;;16.50;83.50;;;;;;5070128;28;19909;-85
2023/10/09 06:35:18;;;;;;;;;;;16.50;83.40;;;;;;5072977;28;19950;-84
2023/10/09 06:45:54;;;;;;;;;;;16.60;83.30;;;;;;5070595;28;19947;-85
2023/10/09 06:58:58;;;;;;;;;;;16.70;83.30;;;;;;5079885;28;19908;-84
2023/10/09 07:04:45;;;;;;;;;;;16.90;82.70;;;;;;5076512;28;19970;-86
2023/10/09 07:07:09;;;;;;;;;;;16.80;83.20;;;;;;5069042;28;22237;-85
2023/10/09 07:10:28;;;;;;;;;;;16.90;83.10;;;;;;5071274;28;20293;-85
2023/10/09 07:12:32;;;;;;;;;;;16.90;82.90;;;;;;5071004;28;20034;-85
2023/10/09 07:15:01;;;;;;;;;;;16.90;83.30;;;;;;5074672;28;19916;-86
2023/10/09 07:17:47;;;;;;;;;;;16.80;83.50;;;;;;5070739;28;20001;-85
2023/10/09 07:20:13;;;;;;;;;;;16.80;83.40;;;;;;5074660;28;19913;-85
2023/10/09 07:22:39;;;;;;;;;;;16.80;83.50;;;;;;5074560;28;19916;-85
2023/10/09 07:25:15;;;;;;;;;;;16.80;83.60;;;;;;5075107;28;19919;-85
2023/10/09 07:27:43;;;;;;;;;;;17.00;83.30;;;;;;5083634;28;19942;-85
2023/10/09 07:38:10;;;;;;;;;;;17.00;82.90;;;;;;5086004;28;19909;-85
2023/10/09 07:40:54;;;;;;;;;;;17.10;83.00;;;;;;5086788;28;19900;-85
2023/10/09 07:43:25;;;;;;;;;;;17.10;82.80;;;;;;5076976;28;19909;-86
2023/10/09 07:48:25;;;;;;;;;;;17.20;82.40;;;;;;5068670;28;20298;-86
2023/10/09 07:50:57;;;;;;;;;;;17.30;82.00;;;;;;5071015;28;19931;-86
2023/10/09 07:53:26;;;;;;;;;;;17.40;82.00;;;;;;5072788;28;19912;-86
2023/10/09 07:55:58;;;;;;;;;;;17.30;82.00;;;;;;5073860;28;19912;-84
2023/10/09 07:58:25;;;;;;;;;;;17.30;82.10;;;;;;5074510;28;19917;-86
2023/10/09 08:01:06;;;;;;;;;;;17.30;81.80;;;;;;5073614;28;19909;-85
2023/10/09 08:03:33;;;;;;;;;;;17.30;82.00;;;;;;5071033;28;19926;-85
2023/10/09 08:09:17;;;;;;;;;;;17.20;82.70;;;;;;5074011;28;19938;-85
2023/10/09 08:19:56;;;;;;;;;;;17.40;82.30;;;;;;5076846;28;19932;-85
2023/10/09 08:24:57;;;;;;;;;;;17.60;82.10;;;;;;5075444;28;19912;-85
2023/10/09 08:32:43;;;;;;;;;;;17.60;81.80;;;;;;5070558;28;19970;-85
2023/10/09 08:37:53;;;;;;;;;;;17.60;82.00;;;;;;5074964;28;19985;-85
2023/10/09 08:40:27;;;;;;;;;;;17.50;82.20;;;;;;5072766;28;19924;-85
2023/10/09 08:42:53;;;;;;;;;;;17.50;82.80;;;;;;5078252;28;20285;-86
2023/10/09 08:45:24;;;;;;;;;;;17.50;83.10;;;;;;5078855;28;20490;-85
2023/10/09 08:47:52;;;;;;;;;;;17.50;82.50;;;;;;5080108;28;19909;-86
2023/10/09 08:50:19;;;;;;;;;;;17.50;82.60;;;;;;5070588;28;19924;-85
2023/10/09 08:52:46;;;;;;;;;;;17.50;82.70;;;;;;5079952;28;19917;-85
2023/10/09 08:55:12;;;;;;;;;;;17.50;83.00;;;;;;5077215;28;20458;-84
2023/10/09 08:57:40;;;;;;;;;;;17.40;83.10;;;;;;5080978;28;19948;-85
2023/10/09 09:00:09;;;;;;;;;;;17.50;83.30;;;;;;5082850;28;20334;-84
2023/10/09 09:02:36;;;;;;;;;;;17.50;83.40;;;;;;5084925;28;19916;-84
2023/10/09 09:05:16;;;;;;;;;;;17.60;83.20;;;;;;5082654;28;19916;-86
2023/10/09 09:07:42;;;;;;;;;;;17.60;83.00;;;;;;5083697;28;19916;-86
2023/10/09 09:10:17;;;;;;;;;;;17.60;83.10;;;;;;5079850;28;19908;-85
2023/10/09 09:12:46;;;;;;;;;;;17.70;83.20;;;;;;5080686;28;19959;-85
2023/10/09 09:15:18;;;;;;;;;;;17.70;83.60;;;;;;5084031;28;19947;-86
2023/10/09 09:17:45;;;;;;;;;;;17.80;83.90;;;;;;5080106;28;19920;-85
2023/10/09 09:20:26;;;;;;;;;;;17.90;83.20;;;;;;5080541;28;19958;-86
2023/10/09 09:22:55;;;;;;;;;;;18.10;82.30;;;;;;5079584;28;20373;-86
2023/10/09 09:25:24;;;;;;;;;;;18.00;82.60;;;;;;5080582;28;19912;-84
2023/10/09 09:27:52;;;;;;;;;;;18.00;82.60;;;;;;5085312;28;19908;-86
2023/10/09 09:30:24;;;;;;;;;;;18.00;82.40;;;;;;5088910;28;19908;-86
2023/10/09 09:33:15;;;;;;;;;;;18.10;82.20;;;;;;5087945;28;19916;-85
2023/10/09 09:35:35;;;;;;;;;;;18.10;82.00;;;;;;5079924;28;19908;-85
2023/10/09 09:38:04;;;;;;;;;;;18.10;81.90;;;;;;5091054;28;19915;-86
2023/10/09 09:40:31;;;;;;;;;;;18.20;82.10;;;;;;5083946;28;19909;-85
2023/10/09 09:42:58;;;;;;;;;;;18.40;81.50;;;;;;5082676;28;19948;-84
2023/10/09 09:45:24;;;;;;;;;;;18.40;81.20;;;;;;5084968;28;19919;-85
2023/10/09 09:47:56;;;;;;;;;;;18.40;81.00;;;;;;5084216;28;19908;-85
2023/10/09 09:50:25;;;;;;;;;;;18.50;80.90;;;;;;5076907;28;19931;-86
2023/10/09 09:52:55;;;;;;;;;;;18.50;81.00;;;;;;5082917;28;19946;-85
2023/10/09 09:55:30;;;;;;;;;;;18.50;80.50;;;;;;5084924;28;19908;-85
2023/10/09 09:58:01;;;;;;;;;;;18.50;80.80;;;;;;5082518;28;19919;-83
2023/10/09 10:00:30;;;;;;;;;;;18.60;80.30;;;;;;5078203;28;19909;-84
2023/10/09 10:02:58;;;;;;;;;;;18.80;80.10;;;;;;5076987;28;19999;-85
2023/10/09 10:05:29;;;;;;;;;;;18.90;79.40;;;;;;5078136;28;20381;-85
2023/10/09 10:07:57;;;;;;;;;;;18.90;79.30;;;;;;5076412;28;19915;-85
2023/10/09 10:10:47;;;;;;;;;;;19.00;79.10;;;;;;5078014;28;19934;-84
2023/10/09 10:13:21;;;;;;;;;;;19.00;78.40;;;;;;5068575;28;19920;-85
2023/10/09 10:16:02;;;;;;;;;;;19.00;78.30;;;;;;5076369;28;19913;-83
2023/10/09 10:18:35;;;;;;;;;;;19.00;78.20;;;;;;5077662;28;19920;-84
2023/10/09 10:22:11;;;;;;;;;;;19.00;78.40;;;;;;5077194;28;19915;-85
2023/10/09 10:24:24;;;;;;;;;;;19.10;78.30;;;;;;5065532;28;19938;-84
2023/10/09 10:27:10;;;;;;;;;;;19.00;78.20;;;;;;5076169;28;20403;-85
2023/10/09 10:29:38;;;;;;;;;;;19.10;77.90;;;;;;5078462;28;19920;-84
2023/10/09 10:32:08;;;;;;;;;;;19.10;78.50;;;;;;5074756;28;19916;-85
2023/10/09 10:34:59;;;;;;;;;;;19.30;78.10;;;;;;5073956;28;19917;-84
2023/10/09 10:37:43;;;;;;;;;;;19.30;77.50;;;;;;5074091;28;19912;-83
2023/10/09 10:40:15;;;;;;;;;;;19.20;77.90;;;;;;5093850;28;20083;-83
2023/10/09 10:43:05;;;;;;;;;;;19.40;77.50;;;;;;5076226;28;19912;-85
2023/10/09 10:45:34;;;;;;;;;;;19.40;77.10;;;;;;5068985;28;19917;-84
2023/10/09 10:48:06;;;;;;;;;;;19.40;77.40;;;;;;5074600;28;19920;-84
2023/10/09 10:53:14;;;;;;;;;;;19.50;76.30;;;;;;5075876;28;19916;-84
2023/10/09 10:55:55;;;;;;;;;;;19.50;76.10;;;;;;5076144;28;19915;-83
2023/10/09 10:58:37;;;;;;;;;;;19.50;75.80;;;;;;5082803;28;20309;-85
2023/10/09 11:01:13;;;;;;;;;;;19.40;76.50;;;;;;5072354;28;19915;-85
2023/10/09 11:03:55;;;;;;;;;;;19.40;76.70;;;;;;5068796;28;19909;-83
2023/10/09 11:06:37;;;;;;;;;;;19.50;76.90;;;;;;5059500;28;19920;-85
2023/10/09 11:09:21;;;;;;;;;;;19.50;76.20;;;;;;5076225;28;19912;-84
2023/10/09 11:11:55;;;;;;;;;;;19.40;76.10;;;;;;5078229;28;19916;-85
2023/10/09 11:14:23;;;;;;;;;;;19.40;76.10;;;;;;5073045;28;20356;-84
2023/10/09 11:16:49;;;;;;;;;;;19.40;76.10;;;;;;5076190;28;19973;-84
2023/10/09 11:24:34;;;;;;;;;;;19.50;76.00;;;;;;5071366;28;19913;-84
2023/10/09 11:27:18;;;;;;;;;;;19.50;75.80;;;;;;5077404;28;19908;-85
2023/10/09 11:29:53;;;;;;;;;;;19.60;75.50;;;;;;5075137;28;19916;-85
2023/10/09 11:32:22;;;;;;;;;;;19.70;75.40;;;;;;5072060;28;20408;-85
2023/10/09 11:34:54;;;;;;;;;;;19.80;75.00;;;;;;5075090;28;20004;-85
2023/10/09 11:39:55;;;;;;;;;;;19.80;74.50;;;;;;5073919;28;19916;-84
2023/10/09 11:42:35;;;;;;;;;;;19.70;74.60;;;;;;5074661;28;19912;-83
2023/10/09 11:45:23;;;;;;;;;;;19.80;74.50;;;;;;5074420;28;19912;-85
2023/10/09 11:47:59;;;;;;;;;;;19.90;74.20;;;;;;5073924;28;19916;-84
2023/10/09 11:50:53;;;;;;;;;;;19.90;74.10;;;;;;5072677;28;19915;-84
2023/10/09 11:53:33;;;;;;;;;;;19.90;74.80;;;;;;5063758;28;19921;-84
2023/10/09 11:55:59;;;;;;;;;;;20.00;74.30;;;;;;5071853;28;19908;-85
2023/10/09 11:58:24;;;;;;;;;;;20.00;73.90;;;;;;5071723;28;19917;-84
2023/10/09 12:00:59;;;;;;;;;;;20.10;73.70;;;;;;5074722;28;20439;-84
2023/10/09 12:03:28;;;;;;;;;;;20.00;74.20;;;;;;5073305;28;19909;-86
2023/10/09 12:05:56;;;;;;;;;;;19.90;74.40;;;;;;5074300;28;20285;-84
2023/10/09 12:08:22;;;;;;;;;;;19.80;74.60;;;;;;5075166;28;20381;-84
2023/10/09 12:10:48;;;;;;;;;;;19.80;75.10;;;;;;5073184;28;20003;-85
2023/10/09 12:13:15;;;;;;;;;;;19.70;75.60;;;;;;5071042;28;20356;-84
2023/10/09 12:15:41;;;;;;;;;;;19.80;75.80;;;;;;5066655;28;19966;-84
2023/10/09 12:18:08;;;;;;;;;;;19.80;75.20;;;;;;5075317;28;19909;-84
2023/10/09 12:20:34;;;;;;;;;;;19.80;75.30;;;;;;5073775;28;19923;-85
2023/10/09 12:23:01;;;;;;;;;;;19.80;75.60;;;;;;5073104;28;20293;-85
2023/10/09 12:25:26;;;;;;;;;;;19.90;74.90;;;;;;5075149;28;20003;-85
2023/10/09 12:27:57;;;;;;;;;;;20.00;74.60;;;;;;5073881;28;19916;-85
2023/10/09 12:30:26;;;;;;;;;;;20.10;74.40;;;;;;5068818;28;19982;-83
2023/10/09 12:32:57;;;;;;;;;;;20.00;74.50;;;;;;5073485;28;19926;-84
2023/10/09 12:35:24;;;;;;;;;;;19.90;74.70;;;;;;5074604;28;19959;-84
2023/10/09 12:37:51;;;;;;;;;;;19.90;74.70;;;;;;5072491;28;19959;-84
2023/10/09 12:40:23;;;;;;;;;;;19.90;74.50;;;;;;5073573;28;20393;-83
2023/10/09 12:42:52;;;;;;;;;;;20.00;74.70;;;;;;5068783;28;19919;-84
2023/10/09 12:45:25;;;;;;;;;;;20.00;73.90;;;;;;5071153;28;19973;-84
2023/10/09 12:47:52;;;;;;;;;;;19.90;74.70;;;;;;5072805;28;20003;-85
2023/10/09 12:50:27;;;;;;;;;;;20.00;74.50;;;;;;5064306;28;19909;-85
2023/10/09 12:52:55;;;;;;;;;;;20.00;74.20;;;;;;5072331;28;19919;-85
2023/10/09 12:55:21;;;;;;;;;;;20.10;74.60;;;;;;5073225;28;19915;-84
2023/10/09 12:57:48;;;;;;;;;;;20.20;73.60;;;;;;5069761;28;19919;-86
2023/10/09 13:00:25;;;;;;;;;;;20.20;73.60;;;;;;5071254;28;19916;-84
2023/10/09 13:02:51;;;;;;;;;;;20.30;73.40;;;;;;5053937;28;20289;-85
2023/10/09 13:05:26;;;;;;;;;;;20.10;74.50;;;;;;5070831;28;19908;-85
2023/10/09 13:07:57;;;;;;;;;;;20.20;74.00;;;;;;5070830;28;19915;-85
2023/10/09 13:10:23;;;;;;;;;;;20.10;74.00;;;;;;5070564;28;19908;-85
2023/10/09 13:12:55;;;;;;;;;;;20.10;74.20;;;;;;5068421;28;19916;-84
2023/10/09 13:15:20;;;;;;;;;;;20.10;74.10;;;;;;5070136;28;19935;-85
2023/10/09 13:17:47;;;;;;;;;;;20.00;74.60;;;;;;5074973;28;19909;-85
2023/10/09 13:20:14;;;;;;;;;;;20.10;74.00;;;;;;5073244;28;22165;-85
2023/10/09 13:22:41;;;;;;;;;;;20.00;74.20;;;;;;5074901;28;19912;-85
2023/10/09 13:25:07;;;;;;;;;;;20.00;74.50;;;;;;5072968;28;19913;-85
2023/10/09 13:27:34;;;;;;;;;;;20.10;73.70;;;;;;5076786;28;19912;-84
2023/10/09 13:30:05;;;;;;;;;;;20.10;73.50;;;;;;5075977;28;19953;-85
2023/10/09 13:32:35;;;;;;;;;;;20.20;73.50;;;;;;5078344;28;19913;-85
2023/10/09 13:35:03;;;;;;;;;;;20.20;73.50;;;;;;5076778;28;19912;-85
2023/10/09 13:37:31;;;;;;;;;;;20.10;73.80;;;;;;5073445;28;19919;-85
2023/10/09 13:39:57;;;;;;;;;;;20.30;73.80;;;;;;5074469;28;19922;-85
2023/10/09 13:42:25;;;;;;;;;;;20.20;73.70;;;;;;5075700;28;19935;-84
2023/10/09 13:44:53;;;;;;;;;;;20.20;73.20;;;;;;5074670;28;19913;-85
2023/10/09 13:47:20;;;;;;;;;;;20.30;73.40;;;;;;5075992;28;19912;-85
2023/10/09 13:49:53;;;;;;;;;;;20.30;73.60;;;;;;5076427;28;19919;-84
2023/10/09 13:52:21;;;;;;;;;;;20.20;73.80;;;;;;5067996;28;19972;-83
2023/10/09 13:54:50;;;;;;;;;;;20.20;74.00;;;;;;5079284;28;20311;-86
2023/10/09 13:57:16;;;;;;;;;;;20.30;73.30;;;;;;5077073;28;20000;-83
2023/10/09 13:59:43;;;;;;;;;;;20.20;73.80;;;;;;5074412;28;19939;-85
2023/10/09 14:02:09;;;;;;;;;;;20.10;74.00;;;;;;5073428;28;19920;-85
2023/10/09 14:04:35;;;;;;;;;;;20.20;73.80;;;;;;5075097;28;19913;-85
2023/10/09 14:07:01;;;;;;;;;;;20.20;73.80;;;;;;5078084;28;20373;-85
2023/10/09 14:09:54;;;;;;;;;;;20.20;73.90;;;;;;5076653;28;19912;-85
2023/10/09 14:12:21;;;;;;;;;;;20.30;74.00;;;;;;5073861;28;19963;-85
2023/10/09 14:14:47;;;;;;;;;;;20.20;74.50;;;;;;5073887;28;19916;-85
2023/10/09 14:17:13;;;;;;;;;;;20.20;74.10;;;;;;5078005;28;19915;-85
2023/10/09 14:19:41;;;;;;;;;;;20.30;74.00;;;;;;5075374;28;19951;-85
2023/10/09 14:22:07;;;;;;;;;;;20.20;74.50;;;;;;5079429;28;19909;-84
2023/10/09 14:24:34;;;;;;;;;;;20.10;74.50;;;;;;5074380;28;19999;-85
2023/10/09 14:27:03;;;;;;;;;;;20.10;74.50;;;;;;5068759;28;19991;-84
2023/10/09 14:29:28;;;;;;;;;;;20.10;75.10;;;;;;5073578;28;19912;-85
2023/10/09 14:32:00;;;;;;;;;;;20.10;75.20;;;;;;5068805;28;19912;-85
2023/10/09 14:34:32;;;;;;;;;;;20.10;74.90;;;;;;5069681;28;19916;-85
2023/10/09 14:37:00;;;;;;;;;;;20.10;75.20;;;;;;5077681;28;19909;-85
2023/10/09 14:39:26;;;;;;;;;;;20.10;75.30;;;;;;5076474;28;19909;-85
2023/10/09 14:41:54;;;;;;;;;;;20.10;75.00;;;;;;5077500;28;20000;-82
2023/10/09 14:44:20;;;;;;;;;;;20.10;75.50;;;;;;5073375;28;20382;-85
2023/10/09 14:46:45;;;;;;;;;;;20.10;74.70;;;;;;5076270;28;19981;-85
2023/10/09 14:49:14;;;;;;;;;;;20.20;74.20;;;;;;5074533;28;19962;-85
2023/10/09 14:51:39;;;;;;;;;;;20.10;74.60;;;;;;5073081;28;20054;-85
2023/10/09 14:54:07;;;;;;;;;;;20.10;74.70;;;;;;5075455;28;19975;-85
2023/10/09 14:56:36;;;;;;;;;;;20.00;75.40;;;;;;5074722;28;19915;-85
2023/10/09 14:59:02;;;;;;;;;;;20.10;75.00;;;;;;5073824;28;19919;-85
2023/10/09 15:01:29;;;;;;;;;;;20.10;74.90;;;;;;5071300;28;20321;-83
2023/10/09 15:03:59;;;;;;;;;;;20.10;74.60;;;;;;5077009;28;19917;-85
2023/10/09 15:06:29;;;;;;;;;;;20.10;74.60;;;;;;5070891;28;19913;-84
2023/10/09 15:08:55;;;;;;;;;;;20.10;74.50;;;;;;5073135;28;20276;-85
2023/10/09 15:11:22;;;;;;;;;;;20.00;75.00;;;;;;5070257;28;19999;-86
2023/10/09 15:13:48;;;;;;;;;;;20.10;74.70;;;;;;5076820;28;19924;-84
2023/10/09 15:16:13;;;;;;;;;;;19.90;75.20;;;;;;5073476;28;20486;-85
2023/10/09 15:18:39;;;;;;;;;;;19.80;75.90;;;;;;5073149;28;20369;-85
2023/10/09 15:21:06;;;;;;;;;;;19.80;75.70;;;;;;5076753;28;19919;-85
2023/10/09 15:23:31;;;;;;;;;;;19.80;75.80;;;;;;5076881;28;19913;-85
2023/10/09 15:25:57;;;;;;;;;;;19.80;76.20;;;;;;5070672;28;19959;-84
2023/10/09 15:28:22;;;;;;;;;;;19.90;76.00;;;;;;5078820;28;19909;-85
2023/10/09 15:30:49;;;;;;;;;;;19.80;76.10;;;;;;5077399;28;19912;-84
2023/10/09 15:33:16;;;;;;;;;;;19.90;76.00;;;;;;5090661;28;19931;-85
2023/10/09 15:35:43;;;;;;;;;;;19.80;76.10;;;;;;5084182;28;19901;-85
2023/10/09 15:38:12;;;;;;;;;;;19.80;76.30;;;;;;5088841;28;19944;-85
2023/10/09 15:40:38;;;;;;;;;;;19.80;76.50;;;;;;5090456;28;19951;-85
2023/10/09 15:43:04;;;;;;;;;;;19.80;76.50;;;;;;5093019;28;19912;-85
2023/10/09 15:45:31;;;;;;;;;;;19.90;76.00;;;;;;5079503;28;19913;-85
2023/10/09 15:47:59;;;;;;;;;;;19.90;76.20;;;;;;5072650;28;20016;-85
2023/10/09 15:50:25;;;;;;;;;;;19.90;76.30;;;;;;5072613;28;19923;-85
2023/10/09 15:52:53;;;;;;;;;;;19.90;76.40;;;;;;5072722;28;20003;-85
2023/10/09 15:55:24;;;;;;;;;;;19.80;76.70;;;;;;5069255;28;19966;-84
2023/10/09 15:57:54;;;;;;;;;;;19.80;76.80;;;;;;5068781;28;19913;-85
2023/10/09 16:00:20;;;;;;;;;;;19.80;76.60;;;;;;5073354;28;19912;-85
2023/10/09 16:02:49;;;;;;;;;;;19.80;77.00;;;;;;5075583;28;20449;-85
2023/10/09 16:05:16;;;;;;;;;;;19.70;77.00;;;;;;5076057;28;19934;-85
2023/10/09 16:07:42;;;;;;;;;;;19.80;77.10;;;;;;5072278;28;19912;-85
2023/10/09 16:10:09;;;;;;;;;;;19.60;77.40;;;;;;5074294;28;19915;-84
2023/10/09 16:12:38;;;;;;;;;;;19.60;77.20;;;;;;5070937;28;19962;-85
2023/10/09 16:15:08;;;;;;;;;;;19.60;77.30;;;;;;5076025;28;19972;-86
2023/10/09 16:17:34;;;;;;;;;;;19.60;77.60;;;;;;5069122;28;20305;-85
2023/10/09 16:20:01;;;;;;;;;;;19.60;77.50;;;;;;5075261;28;19922;-85
2023/10/09 16:22:29;;;;;;;;;;;19.60;77.70;;;;;;5072953;28;20343;-85
2023/10/09 16:24:55;;;;;;;;;;;19.50;77.90;;;;;;5072667;28;19912;-85
2023/10/09 16:27:23;;;;;;;;;;;19.60;77.80;;;;;;5071696;28;20003;-85
2023/10/09 16:29:52;;;;;;;;;;;19.50;77.90;;;;;;5067501;28;19913;-85
2023/10/09 16:32:21;;;;;;;;;;;19.50;77.90;;;;;;5070853;28;20479;-84
2023/10/09 16:34:50;;;;;;;;;;;19.50;77.90;;;;;;5077668;28;19916;-85
2023/10/09 16:37:17;;;;;;;;;;;19.50;77.80;;;;;;5069264;28;19977;-85
2023/10/09 16:39:44;;;;;;;;;;;19.60;77.70;;;;;;5075816;28;19908;-85
2023/10/09 16:42:10;;;;;;;;;;;19.60;77.80;;;;;;5064533;28;20392;-85
2023/10/09 16:44:36;;;;;;;;;;;19.60;77.70;;;;;;5072690;28;19913;-85
2023/10/09 16:47:03;;;;;;;;;;;19.50;78.10;;;;;;5072056;28;19915;-84
2023/10/09 16:49:30;;;;;;;;;;;19.50;78.00;;;;;;5072087;28;20369;-85
2023/10/09 16:51:56;;;;;;;;;;;19.50;78.20;;;;;;5071123;28;19915;-86
2023/10/09 16:54:22;;;;;;;;;;;19.50;78.10;;;;;;5067249;28;19919;-85
2023/10/09 16:56:50;;;;;;;;;;;19.40;78.30;;;;;;5072355;28;19916;-85
2023/10/09 16:59:16;;;;;;;;;;;19.30;78.80;;;;;;5072153;28;19913;-84
2023/10/09 17:01:41;;;;;;;;;;;19.20;79.30;;;;;;5072813;28;19916;-85
2023/10/09 17:04:11;;;;;;;;;;;19.10;79.70;;;;;;5072742;28;19984;-85
2023/10/09 17:06:41;;;;;;;;;;;19.10;79.70;;;;;;5075365;28;19908;-85
2023/10/09 17:09:07;;;;;;;;;;;19.00;79.90;;;;;;5074287;28;19919;-85